Newburgh, IN (47630)

3:35 AM CDT on October 26, 2014 (GMT -0500)
Summer Creek | Change Station
CLOSE
Current Station
Personal Weather Station
Location: Newburgh, IN
Elevation: 387 ft
Nearby Weather Stations

Elev 387 ft 37.97 °N, 87.37 °W | Updated 45 seconds ago

Clear
Clear
50.3 °F
Feels Like 50.3 °F
N
0.0
Wind Variable Wind from WNW
Gusts 0.0 mph

Today
High -- | Low -- °F
--% Chance of Precip.
Yesterday
High -- | Low -- °F
Precip. -- in
7:08 AM 5:57 PM
Waxing Crescent, 6% visible
Pressure 30.01 in
Visibility 10.0 miles
Clouds Clear
Dew Point 48 °F
Humidity 92%
Rainfall 0.00 in
Snow Depth Not available.
UV 0 out of 12
Pollen 2.00 out of 12
Air Quality Not available.
Flu Activity Sporadic
METAR KEVV 260754Z AUTO 36007KT 10SM CLR 16/09 A3001 RMK AO2 SLP160 T01610094

More Conditions Fewer Conditions

Pressure 30.01 in
Visibility 10.0 miles
Clouds Clear
Dew Point 48 °F
Humidity 92%
Rainfall 0.00 in
Snow Depth Not available.
UV 0 out of 12
Pollen 2.00 out of 12
Air Quality Not available.
Flu Activity Sporadic
METAR KEVV 260754Z AUTO 36007KT 10SM CLR 16/09 A3001 RMK AO2 SLP160 T01610094

More Conditions Fewer Conditions

10-Day Weather Forecast

Almanac

Astronomy

Oct. 26, 2014 Rise Set
Actual Time 7:08 AM CDT 5:57 PM CDT
Civil Twilight 6:41 AM CDT 6:24 PM CDT
Nautical Twilight 6:11 AM CDT 6:55 PM CDT
Astronomical Twilight 5:40 AM CDT 7:25 PM CDT
Moon 9:44 AM CDT 8:10 PM CDT
Length of Visible Light 11h 42m
Length of Day
10h 48m
Tomorrow will be 2m 14s shorter.
Waxing Crescent, 6% of the Moon is Illuminated
Today
Waxing Crescent
Oct 30
First Quarter
Nov 6
Full
Nov 14
Last Quarter
Nov 22
New

Today's Extremes

State Highs State Lows

Community

WunderPhotos

Upload Photos

1,765,127 photos uploaded!

Nearby

Snow Depth

Station Depth Elevation
No new snow has been reported.

Earthquake Activity

City Distance Mag. Time & Date
No recent earthquake activity has been reported nearby.
Minimum magnitude displayed is 2.5.

Coastal Water Temperatures

Place Temperature
No Stations Reporting

Nearby Weather Stations